Página principal
METAR-TAF:

METAR-TAF

Aeroportos :

Lahore, Paquistão

latitude: 31-31N, longitude: 074-24E, altura: 216 m

Observação actual do tempo

O boletim foi feito há 40 minutos, às 05:55 UTC
Vento 10 kt de oes-noroeste
Temperatura 15°C
Humidade 39%
Pressão 1022 hPa
Visibilidade: 5000 m
bruma

METAR: OPLA 230555Z 30010KT 5000 HZ NSC 15/01 Q1022 NOSIG RMK QFE997 RMK A30.17

Hora: 11:35 (06:35 UTC)

Previsão

O boletim foi feito há 2 horas e 50 minutos, às 03:45 UTC
Previsão válida de 23 às 06 UTC a 24 às 12 UTC
Vento 6 kt de nor-noroeste
Visibilidade: 6000 m
A partir de 23 às 1500 UTC
Vento 4 kt de oeste
Visibilidade: 4000 m
fumo
A partir de 24 às 0600 UTC
Vento 5 kt de oes-noroeste
Visibilidade: 5000 m
Nuvens dispersasa uma altura de 10000 ft
fumo

TAF: OPLA 230345Z 2306/2412 33006KT 6000 NSC TX18/2410Z TN05/2402Z FM231500 27004KT 4000 FU NSC FM240600 29005KT 5000 FU SCT100

Observações e previsões do tempo de mais de 4000 aeroportos (mensagens METAR e TAF).

As estações disponíveis são os pontos amarelos e vermelhos sobre o mapa.

Mova o rato sobre o mapa para ver o nome da estação.

Depois clique no ponto para visualizar as observações e previsões meteorológicas.

Para alterar o mapa : clique nos botões verdes com uma cruz preta para aumentar o zoom; no botão verde com uma pitada de zoom; ou nas setas verdes para mapas adjacentes.


METAR-TAF: